Hovedside
METAR-TAF:

METAR-TAF

Lufthavner :

Molde lufthavn. Årø

Molde, Norge

breddegrad: 62-45N, lengdegrad: 007-16E, høyde over havet: 0 m

Gjeldene værobservasjon

Denne rapporten ble laget for 33 minutter siden, klokken 04:50 UTC
Vind 10 kt fra Øst-nordøst
Temperatur 2°C
Luftfuktighet 64%
Trykk 985 hPa
Sikt 10 km eller mer

METAR: ENML 290450Z AUTO 07010KT 9999NDV OVC084/// 02/M04 Q0985

Tid: 06:23 (05:23 UTC)

Varsel

Denne rapporten ble laget for 12 timer og 23 minutter siden, klokken 17:00 UTC
Varsel gyldig fra 28. klokken 18 UTC til 28. klokken 22 UTC
Vind 8 kt fra Nord-nordøst
Sikt 10 km eller mer
ingen skyer under 1500 m og ingen bygeskyer

TAF: ENML 281700Z 2818/2822 03008KT CAVOK

Værobservasjoner og værvarsel for over 4000 flyplasser (METAR- og TAF-rapporter).

Tilgjengelige stasjoner er representert av de røde og gule prikkene på kartet.

Hold musepekeren over prikken for å se navnet på stasjonen.

Klikk så for å se værobservasjoner og -varsler.

For å forandre kartet kan du klikke på den grønne knappen med svart kryss for å zoome inn, på den grønne knappen med strek for å zoome ut, eller på de grønne pilene for å se tilstøtende kart.


METAR-TAF: